SWR155 VABB-LSZH
Flight info
| Callsign | SWR155 |
|---|---|
| Flight time | N/A |
| Altitude | 36000 |
| Route | ANOLI2A ISRIS Z1 APANO G451 AAE Z8 VIKIT P628 RK G202 ZB L750 RANAH A846 BELUG/N0487F380 A846 ABDAN A909 RODAR N644 ADEKI DCT BADIR DCT LAGAS DCT NOLGA UN61 TBN UM11 CRM UL746 ODERO DCT LUGEB/N0481F400 DCT NERDI DCT EBORO DCT GOTAR DCT ERKIR DCT KPT L856 NEGRA |
| Aircraft | A359/H-SDE2E3GHIJ3J4J5LM1ORWXY/LB1D1 |
Departure
| Time | N/A |
|---|---|
| Airport | Chhatrapati Shivaji Maharaj International Airport (VABB) |
Arrival
| Time | 2026-05-06 06:15 |
|---|---|
| Airport | Zürich Airport (LSZH) |
| Time | Latitude | Longitude | Altitude | Speed | Heading |
|---|---|---|---|---|---|
| 2026-05-06 06:10 | 47.62437 | 8.34174 | 5238 ft | 234 kts | 138° |
| 2026-05-06 06:10 | 47.61238 | 8.35820 | 4875 ft | 236 kts | 137° |
| 2026-05-06 06:11 | 47.60045 | 8.37451 | 4532 ft | 228 kts | 137° |
| 2026-05-06 06:11 | 47.58902 | 8.39014 | 4229 ft | 219 kts | 137° |
| 2026-05-06 06:11 | 47.57814 | 8.40501 | 3956 ft | 207 kts | 137° |
| 2026-05-06 06:11 | 47.56793 | 8.41903 | 3709 ft | 199 kts | 137° |
| 2026-05-06 06:12 | 47.55790 | 8.43264 | 3422 ft | 192 kts | 137° |
| 2026-05-06 06:12 | 47.54819 | 8.44594 | 3180 ft | 185 kts | 137° |
| 2026-05-06 06:12 | 47.53897 | 8.45857 | 2927 ft | 175 kts | 138° |
| 2026-05-06 06:12 | 47.53038 | 8.47027 | 2701 ft | 162 kts | 137° |
| 2026-05-06 06:13 | 47.52227 | 8.48138 | 2493 ft | 158 kts | 137° |
| 2026-05-06 06:13 | 47.51419 | 8.49238 | 2305 ft | 157 kts | 137° |
| 2026-05-06 06:13 | 47.50625 | 8.50322 | 2083 ft | 157 kts | 138° |
| 2026-05-06 06:13 | 47.49818 | 8.51423 | 1874 ft | 157 kts | 138° |
| 2026-05-06 06:14 | 47.49015 | 8.52512 | 1649 ft | 156 kts | 137° |
| 2026-05-06 06:14 | 47.48221 | 8.53594 | 1448 ft | 155 kts | 137° |
| 2026-05-06 06:14 | 47.47463 | 8.54631 | 1401 ft | 138 kts | 137° |
| 2026-05-06 06:14 | 47.46924 | 8.55357 | 1397 ft | 70 kts | 136° |
| 2026-05-06 06:15 | 47.46698 | 8.55670 | 1400 ft | 36 kts | 137° |
| 2026-05-06 06:15 | 47.46510 | 8.55895 | 1402 ft | 34 kts | 147° |
| 2026-05-06 06:15 | 47.46306 | 8.55980 | 1408 ft | 25 kts | 166° |
| 2026-05-06 06:15 | 47.46142 | 8.55997 | 1413 ft | 23 kts | 188° |
| 2026-05-06 06:16 | 47.45985 | 8.55971 | 1412 ft | 19 kts | 190° |
| 2026-05-06 06:16 | 47.45940 | 8.55838 | 1411 ft | 16 kts | 275° |
| 2026-05-06 06:16 | 47.45946 | 8.55774 | 1410 ft | 4 kts | 276° |
| 2026-05-06 06:16 | 47.45953 | 8.55739 | 1409 ft | 4 kts | 303° |
| 2026-05-06 06:17 | 47.45982 | 8.55728 | 1409 ft | 6 kts | 358° |
| 2026-05-06 06:17 | 47.46023 | 8.55734 | 1409 ft | 1 kts | 6° |
| 2026-05-06 06:17 | 47.46027 | 8.55735 | 1409 ft | 2 kts | 6° |
| 2026-05-06 06:17 | 47.46033 | 8.55736 | 1409 ft | 0 kts | 6° |
| 2026-05-06 06:18 | 47.46035 | 8.55736 | 1409 ft | 0 kts | 6° |